Welcome to the New NWS' Forecast!
Most changes are behind the scenes, but click here for differences you might notice.

Terminal Aerodrome Forecast (TAF)

Issued by National Weather Service (NWS)

                            
212 
FTUS42 KKEY 170555 AAA
TAFMTH
TAF AMD
KMTH 170555Z 1706/1806 11007KT P6SM SCT020
     FM171800 12012KT P6SM SCT025
     FM180300 09006KT P6SM VCSH SCT025 SCT040=